sensor_id;sensor_type;location;lat;lon;timestamp;P1;durP1;ratioP1;P2;durP2;ratioP2
73814;SDS011;62145;55.648;37.602;2022-07-29T00:00:03;3.63;;;1.50;;
73814;SDS011;62145;55.648;37.602;2022-07-29T00:02:30;4.28;;;1.42;;
73814;SDS011;62145;55.648;37.602;2022-07-29T00:04:57;4.10;;;1.50;;
73814;SDS011;62145;55.648;37.602;2022-07-29T00:07:23;3.47;;;1.50;;
73814;SDS011;62145;55.648;37.602;2022-07-29T00:09:49;3.78;;;1.40;;
73814;SDS011;62145;55.648;37.602;2022-07-29T00:12:16;4.60;;;1.67;;
73814;SDS011;62145;55.648;37.602;2022-07-29T00:14:42;4.15;;;1.30;;
73814;SDS011;62145;55.648;37.602;2022-07-29T00:17:07;4.63;;;1.50;;
73814;SDS011;62145;55.648;37.602;2022-07-29T00:19:33;5.22;;;1.35;;
73814;SDS011;62145;55.648;37.602;2022-07-29T00:21:59;4.07;;;1.40;;
73814;SDS011;62145;55.648;37.602;2022-07-29T00:24:26;4.57;;;1.50;;
73814;SDS011;62145;55.648;37.602;2022-07-29T00:26:52;3.72;;;1.50;;
73814;SDS011;62145;55.648;37.602;2022-07-29T00:29:18;3.28;;;1.50;;
73814;SDS011;62145;55.648;37.602;2022-07-29T00:31:44;4.43;;;1.53;;
73814;SDS011;62145;55.648;37.602;2022-07-29T00:34:10;4.13;;;1.40;;
73814;SDS011;62145;55.648;37.602;2022-07-29T00:36:56;7.35;;;1.70;;
73814;SDS011;62145;55.648;37.602;2022-07-29T00:39:22;5.70;;;1.60;;
73814;SDS011;62145;55.648;37.602;2022-07-29T00:41:48;3.88;;;1.67;;
73814;SDS011;62145;55.648;37.602;2022-07-29T00:44:14;4.23;;;1.60;;
73814;SDS011;62145;55.648;37.602;2022-07-29T00:46:40;5.32;;;1.60;;
73814;SDS011;62145;55.648;37.602;2022-07-29T00:49:06;4.13;;;1.65;;
73814;SDS011;62145;55.648;37.602;2022-07-29T00:51:34;3.80;;;1.53;;
73814;SDS011;62145;55.648;37.602;2022-07-29T00:54:02;5.20;;;1.75;;
73814;SDS011;62145;55.648;37.602;2022-07-29T00:56:32;6.35;;;2.00;;
73814;SDS011;62145;55.648;37.602;2022-07-29T00:58:59;4.30;;;1.73;;
73814;SDS011;62145;55.648;37.602;2022-07-29T01:01:25;3.70;;;1.48;;
73814;SDS011;62145;55.648;37.602;2022-07-29T01:03:51;3.90;;;1.43;;
73814;SDS011;62145;55.648;37.602;2022-07-29T01:06:18;5.57;;;1.63;;
73814;SDS011;62145;55.648;37.602;2022-07-29T01:08:44;3.80;;;1.70;;
73814;SDS011;62145;55.648;37.602;2022-07-29T01:11:11;5.03;;;1.77;;
73814;SDS011;62145;55.648;37.602;2022-07-29T01:13:37;5.15;;;1.80;;
73814;SDS011;62145;55.648;37.602;2022-07-29T01:16:06;3.93;;;1.67;;
73814;SDS011;62145;55.648;37.602;2022-07-29T01:18:42;4.75;;;1.50;;
73814;SDS011;62145;55.648;37.602;2022-07-29T01:24:21;4.50;;;1.55;;
73814;SDS011;62145;55.648;37.602;2022-07-29T01:27:22;4.97;;;1.63;;
73814;SDS011;62145;55.648;37.602;2022-07-29T01:29:59;5.20;;;1.90;;
73814;SDS011;62145;55.648;37.602;2022-07-29T01:32:29;4.75;;;1.70;;
73814;SDS011;62145;55.648;37.602;2022-07-29T01:37:46;6.25;;;1.80;;
73814;SDS011;62145;55.648;37.602;2022-07-29T01:40:24;4.85;;;1.67;;
73814;SDS011;62145;55.648;37.602;2022-07-29T01:42:54;5.20;;;1.70;;
73814;SDS011;62145;55.648;37.602;2022-07-29T01:47:56;5.25;;;1.75;;
73814;SDS011;62145;55.648;37.602;2022-07-29T01:50:27;5.65;;;1.65;;
73814;SDS011;62145;55.648;37.602;2022-07-29T01:53:00;3.67;;;1.77;;
73814;SDS011;62145;55.648;37.602;2022-07-29T01:55:31;5.63;;;1.80;;
73814;SDS011;62145;55.648;37.602;2022-07-29T01:57:59;4.78;;;2.00;;
73814;SDS011;62145;55.648;37.602;2022-07-29T02:00:26;4.85;;;1.90;;
73814;SDS011;62145;55.648;37.602;2022-07-29T02:02:52;6.35;;;1.90;;
73814;SDS011;62145;55.648;37.602;2022-07-29T02:05:20;4.90;;;1.70;;
73814;SDS011;62145;55.648;37.602;2022-07-29T02:07:47;6.00;;;1.87;;
73814;SDS011;62145;55.648;37.602;2022-07-29T02:10:14;6.15;;;1.95;;
73814;SDS011;62145;55.648;37.602;2022-07-29T02:12:40;6.00;;;1.90;;
73814;SDS011;62145;55.648;37.602;2022-07-29T02:15:28;6.10;;;2.13;;
73814;SDS011;62145;55.648;37.602;2022-07-29T02:17:58;3.78;;;1.60;;
73814;SDS011;62145;55.648;37.602;2022-07-29T02:20:26;6.80;;;1.90;;
73814;SDS011;62145;55.648;37.602;2022-07-29T02:22:54;3.95;;;1.70;;
73814;SDS011;62145;55.648;37.602;2022-07-29T02:25:21;5.72;;;1.85;;
73814;SDS011;62145;55.648;37.602;2022-07-29T02:27:48;4.45;;;1.90;;
73814;SDS011;62145;55.648;37.602;2022-07-29T02:30:15;7.93;;;2.08;;
73814;SDS011;62145;55.648;37.602;2022-07-29T02:32:42;5.40;;;1.97;;
73814;SDS011;62145;55.648;37.602;2022-07-29T02:35:09;6.93;;;2.08;;
73814;SDS011;62145;55.648;37.602;2022-07-29T02:37:36;4.45;;;1.80;;
73814;SDS011;62145;55.648;37.602;2022-07-29T02:40:02;4.82;;;2.13;;
73814;SDS011;62145;55.648;37.602;2022-07-29T02:42:29;5.47;;;1.85;;
73814;SDS011;62145;55.648;37.602;2022-07-29T02:44:56;4.40;;;1.77;;
73814;SDS011;62145;55.648;37.602;2022-07-29T02:47:30;7.18;;;2.00;;
73814;SDS011;62145;55.648;37.602;2022-07-29T02:50:08;5.10;;;2.10;;
73814;SDS011;62145;55.648;37.602;2022-07-29T02:55:29;5.97;;;1.73;;
73814;SDS011;62145;55.648;37.602;2022-07-29T02:57:59;4.53;;;1.73;;
73814;SDS011;62145;55.648;37.602;2022-07-29T03:00:27;4.93;;;2.00;;
73814;SDS011;62145;55.648;37.602;2022-07-29T03:02:56;4.28;;;1.58;;
73814;SDS011;62145;55.648;37.602;2022-07-29T03:05:23;7.00;;;1.83;;
73814;SDS011;62145;55.648;37.602;2022-07-29T03:07:54;3.93;;;1.50;;
73814;SDS011;62145;55.648;37.602;2022-07-29T03:10:23;4.55;;;1.58;;
73814;SDS011;62145;55.648;37.602;2022-07-29T03:12:52;3.85;;;1.70;;
73814;SDS011;62145;55.648;37.602;2022-07-29T03:15:18;6.45;;;1.63;;
73814;SDS011;62145;55.648;37.602;2022-07-29T03:17:44;4.38;;;1.70;;
73814;SDS011;62145;55.648;37.602;2022-07-29T03:20:11;4.03;;;1.70;;
73814;SDS011;62145;55.648;37.602;2022-07-29T03:22:41;6.65;;;1.60;;
73814;SDS011;62145;55.648;37.602;2022-07-29T03:25:12;7.55;;;1.70;;
73814;SDS011;62145;55.648;37.602;2022-07-29T03:27:38;4.38;;;1.60;;
73814;SDS011;62145;55.648;37.602;2022-07-29T03:30:05;6.35;;;1.92;;
73814;SDS011;62145;55.648;37.602;2022-07-29T03:32:31;4.27;;;1.50;;
73814;SDS011;62145;55.648;37.602;2022-07-29T03:34:57;4.55;;;1.70;;
73814;SDS011;62145;55.648;37.602;2022-07-29T03:37:23;3.97;;;1.67;;
73814;SDS011;62145;55.648;37.602;2022-07-29T03:39:49;4.10;;;1.53;;
73814;SDS011;62145;55.648;37.602;2022-07-29T03:42:16;5.85;;;1.60;;
73814;SDS011;62145;55.648;37.602;2022-07-29T03:44:44;4.53;;;1.80;;
73814;SDS011;62145;55.648;37.602;2022-07-29T03:47:11;6.30;;;1.95;;
73814;SDS011;62145;55.648;37.602;2022-07-29T03:49:38;4.53;;;1.50;;
73814;SDS011;62145;55.648;37.602;2022-07-29T03:52:06;4.37;;;1.77;;
73814;SDS011;62145;55.648;37.602;2022-07-29T03:54:31;6.07;;;1.70;;
73814;SDS011;62145;55.648;37.602;2022-07-29T03:56:58;3.72;;;1.48;;
73814;SDS011;62145;55.648;37.602;2022-07-29T03:59:26;6.72;;;1.77;;
73814;SDS011;62145;55.648;37.602;2022-07-29T04:01:52;4.03;;;1.70;;
73814;SDS011;62145;55.648;37.602;2022-07-29T04:04:19;4.35;;;1.77;;
73814;SDS011;62145;55.648;37.602;2022-07-29T04:06:45;5.50;;;1.67;;
73814;SDS011;62145;55.648;37.602;2022-07-29T04:09:11;5.78;;;1.88;;
73814;SDS011;62145;55.648;37.602;2022-07-29T04:11:38;5.33;;;1.90;;
73814;SDS011;62145;55.648;37.602;2022-07-29T04:14:04;5.03;;;1.80;;
73814;SDS011;62145;55.648;37.602;2022-07-29T04:16:30;4.68;;;1.70;;
73814;SDS011;62145;55.648;37.602;2022-07-29T04:18:56;6.28;;;1.90;;
73814;SDS011;62145;55.648;37.602;2022-07-29T04:21:22;4.70;;;1.50;;
73814;SDS011;62145;55.648;37.602;2022-07-29T04:23:48;5.25;;;1.90;;
73814;SDS011;62145;55.648;37.602;2022-07-29T04:26:17;3.38;;;1.60;;
73814;SDS011;62145;55.648;37.602;2022-07-29T04:28:43;5.45;;;1.75;;
73814;SDS011;62145;55.648;37.602;2022-07-29T04:31:09;5.77;;;1.80;;
73814;SDS011;62145;55.648;37.602;2022-07-29T04:33:36;4.35;;;1.58;;
73814;SDS011;62145;55.648;37.602;2022-07-29T04:36:03;5.60;;;1.90;;
73814;SDS011;62145;55.648;37.602;2022-07-29T04:38:30;5.38;;;1.50;;
73814;SDS011;62145;55.648;37.602;2022-07-29T04:40:55;4.90;;;1.87;;
73814;SDS011;62145;55.648;37.602;2022-07-29T04:43:21;5.30;;;2.05;;
73814;SDS011;62145;55.648;37.602;2022-07-29T04:45:47;5.07;;;1.73;;
73814;SDS011;62145;55.648;37.602;2022-07-29T04:48:13;4.43;;;1.90;;
73814;SDS011;62145;55.648;37.602;2022-07-29T04:50:39;4.33;;;1.80;;
73814;SDS011;62145;55.648;37.602;2022-07-29T04:53:05;4.90;;;2.00;;
73814;SDS011;62145;55.648;37.602;2022-07-29T04:55:32;4.97;;;1.83;;
73814;SDS011;62145;55.648;37.602;2022-07-29T04:57:58;6.07;;;1.90;;
73814;SDS011;62145;55.648;37.602;2022-07-29T05:00:23;3.90;;;1.70;;
73814;SDS011;62145;55.648;37.602;2022-07-29T05:02:49;4.78;;;2.00;;
73814;SDS011;62145;55.648;37.602;2022-07-29T05:05:15;5.43;;;1.63;;
73814;SDS011;62145;55.648;37.602;2022-07-29T05:07:41;4.57;;;2.03;;
73814;SDS011;62145;55.648;37.602;2022-07-29T05:10:07;3.97;;;1.80;;
73814;SDS011;62145;55.648;37.602;2022-07-29T05:12:34;4.80;;;2.00;;
73814;SDS011;62145;55.648;37.602;2022-07-29T05:14:59;4.85;;;1.92;;
73814;SDS011;62145;55.648;37.602;2022-07-29T05:17:25;5.38;;;1.65;;
73814;SDS011;62145;55.648;37.602;2022-07-29T05:19:52;5.07;;;1.92;;
73814;SDS011;62145;55.648;37.602;2022-07-29T05:22:18;5.60;;;1.90;;
73814;SDS011;62145;55.648;37.602;2022-07-29T05:24:44;7.28;;;2.28;;
73814;SDS011;62145;55.648;37.602;2022-07-29T05:27:10;4.82;;;2.10;;
73814;SDS011;62145;55.648;37.602;2022-07-29T05:29:36;5.57;;;2.27;;
73814;SDS011;62145;55.648;37.602;2022-07-29T05:32:02;4.20;;;1.90;;
73814;SDS011;62145;55.648;37.602;2022-07-29T05:34:29;4.95;;;1.75;;
73814;SDS011;62145;55.648;37.602;2022-07-29T05:36:54;5.47;;;1.97;;
73814;SDS011;62145;55.648;37.602;2022-07-29T05:39:20;4.88;;;2.00;;
73814;SDS011;62145;55.648;37.602;2022-07-29T05:41:46;5.00;;;1.85;;
73814;SDS011;62145;55.648;37.602;2022-07-29T05:44:12;6.90;;;2.00;;
73814;SDS011;62145;55.648;37.602;2022-07-29T05:46:39;5.22;;;1.98;;
73814;SDS011;62145;55.648;37.602;2022-07-29T05:49:05;5.88;;;2.28;;
73814;SDS011;62145;55.648;37.602;2022-07-29T05:51:32;5.05;;;2.00;;
73814;SDS011;62145;55.648;37.602;2022-07-29T05:54:00;4.05;;;1.98;;
73814;SDS011;62145;55.648;37.602;2022-07-29T05:56:27;7.90;;;2.17;;
73814;SDS011;62145;55.648;37.602;2022-07-29T05:58:53;8.18;;;2.17;;
73814;SDS011;62145;55.648;37.602;2022-07-29T06:01:19;5.10;;;1.80;;
73814;SDS011;62145;55.648;37.602;2022-07-29T06:03:45;5.93;;;2.08;;
73814;SDS011;62145;55.648;37.602;2022-07-29T06:06:11;5.05;;;2.00;;
73814;SDS011;62145;55.648;37.602;2022-07-29T06:08:37;3.80;;;1.87;;
73814;SDS011;62145;55.648;37.602;2022-07-29T06:11:04;5.50;;;2.10;;
73814;SDS011;62145;55.648;37.602;2022-07-29T06:13:30;3.95;;;2.40;;
73814;SDS011;62145;55.648;37.602;2022-07-29T06:15:56;5.28;;;2.20;;
73814;SDS011;62145;55.648;37.602;2022-07-29T06:18:22;4.80;;;2.00;;
73814;SDS011;62145;55.648;37.602;2022-07-29T06:20:49;4.50;;;1.92;;
73814;SDS011;62145;55.648;37.602;2022-07-29T06:23:16;4.10;;;2.03;;
73814;SDS011;62145;55.648;37.602;2022-07-29T06:25:43;5.18;;;2.55;;
73814;SDS011;62145;55.648;37.602;2022-07-29T06:28:09;6.17;;;2.40;;
73814;SDS011;62145;55.648;37.602;2022-07-29T06:30:36;4.70;;;1.92;;
73814;SDS011;62145;55.648;37.602;2022-07-29T06:33:02;6.57;;;1.90;;
73814;SDS011;62145;55.648;37.602;2022-07-29T06:35:28;4.72;;;2.00;;
73814;SDS011;62145;55.648;37.602;2022-07-29T06:37:54;5.30;;;1.90;;
73814;SDS011;62145;55.648;37.602;2022-07-29T06:40:20;6.13;;;2.13;;
73814;SDS011;62145;55.648;37.602;2022-07-29T06:43:04;6.38;;;2.20;;
73814;SDS011;62145;55.648;37.602;2022-07-29T06:45:33;4.37;;;2.10;;
73814;SDS011;62145;55.648;37.602;2022-07-29T06:47:59;4.78;;;2.03;;
73814;SDS011;62145;55.648;37.602;2022-07-29T06:50:25;5.45;;;2.25;;
73814;SDS011;62145;55.648;37.602;2022-07-29T06:52:51;5.15;;;2.22;;
73814;SDS011;62145;55.648;37.602;2022-07-29T06:55:17;6.90;;;2.13;;
73814;SDS011;62145;55.648;37.602;2022-07-29T06:57:45;5.93;;;2.00;;
73814;SDS011;62145;55.648;37.602;2022-07-29T07:00:11;4.03;;;2.10;;
73814;SDS011;62145;55.648;37.602;2022-07-29T07:02:38;4.65;;;2.30;;
73814;SDS011;62145;55.648;37.602;2022-07-29T07:05:04;4.40;;;2.00;;
73814;SDS011;62145;55.648;37.602;2022-07-29T07:07:30;4.38;;;2.13;;
73814;SDS011;62145;55.648;37.602;2022-07-29T07:09:56;4.10;;;1.98;;
73814;SDS011;62145;55.648;37.602;2022-07-29T07:12:22;3.38;;;2.08;;
73814;SDS011;62145;55.648;37.602;2022-07-29T07:14:48;4.70;;;2.30;;
73814;SDS011;62145;55.648;37.602;2022-07-29T07:17:14;4.70;;;1.88;;
73814;SDS011;62145;55.648;37.602;2022-07-29T07:19:40;5.47;;;1.90;;
73814;SDS011;62145;55.648;37.602;2022-07-29T07:22:06;4.87;;;2.10;;
73814;SDS011;62145;55.648;37.602;2022-07-29T07:24:32;4.20;;;1.75;;
73814;SDS011;62145;55.648;37.602;2022-07-29T07:26:58;4.57;;;1.55;;
73814;SDS011;62145;55.648;37.602;2022-07-29T07:29:24;3.40;;;1.70;;
73814;SDS011;62145;55.648;37.602;2022-07-29T07:31:49;5.10;;;2.00;;
73814;SDS011;62145;55.648;37.602;2022-07-29T07:34:15;3.30;;;1.60;;
73814;SDS011;62145;55.648;37.602;2022-07-29T07:36:41;4.35;;;1.40;;
73814;SDS011;62145;55.648;37.602;2022-07-29T07:39:07;4.23;;;1.30;;
73814;SDS011;62145;55.648;37.602;2022-07-29T07:41:33;5.97;;;2.03;;
73814;SDS011;62145;55.648;37.602;2022-07-29T07:43:59;6.30;;;1.60;;
73814;SDS011;62145;55.648;37.602;2022-07-29T07:46:25;4.80;;;1.97;;
73814;SDS011;62145;55.648;37.602;2022-07-29T07:48:50;3.40;;;1.30;;
73814;SDS011;62145;55.648;37.602;2022-07-29T07:51:17;4.53;;;1.50;;
73814;SDS011;62145;55.648;37.602;2022-07-29T07:53:43;4.97;;;1.60;;
73814;SDS011;62145;55.648;37.602;2022-07-29T07:56:10;4.55;;;1.65;;
73814;SDS011;62145;55.648;37.602;2022-07-29T07:58:36;4.10;;;1.80;;
73814;SDS011;62145;55.648;37.602;2022-07-29T08:01:02;4.45;;;1.42;;
73814;SDS011;62145;55.648;37.602;2022-07-29T08:03:28;4.88;;;1.40;;
73814;SDS011;62145;55.648;37.602;2022-07-29T08:05:54;4.67;;;1.60;;
73814;SDS011;62145;55.648;37.602;2022-07-29T08:08:19;3.55;;;1.48;;
73814;SDS011;62145;55.648;37.602;2022-07-29T08:10:46;5.30;;;1.50;;
73814;SDS011;62145;55.648;37.602;2022-07-29T08:13:18;6.38;;;1.83;;
73814;SDS011;62145;55.648;37.602;2022-07-29T08:15:48;4.00;;;1.67;;
73814;SDS011;62145;55.648;37.602;2022-07-29T08:18:26;5.80;;;1.63;;
73814;SDS011;62145;55.648;37.602;2022-07-29T08:20:52;6.22;;;1.42;;
73814;SDS011;62145;55.648;37.602;2022-07-29T08:23:18;5.00;;;2.00;;
73814;SDS011;62145;55.648;37.602;2022-07-29T08:25:44;5.53;;;1.90;;
73814;SDS011;62145;55.648;37.602;2022-07-29T08:28:10;4.63;;;1.70;;
73814;SDS011;62145;55.648;37.602;2022-07-29T08:30:36;3.92;;;1.40;;
73814;SDS011;62145;55.648;37.602;2022-07-29T08:33:02;4.72;;;1.67;;
73814;SDS011;62145;55.648;37.602;2022-07-29T08:35:28;4.50;;;1.60;;
73814;SDS011;62145;55.648;37.602;2022-07-29T08:37:54;4.87;;;1.60;;
73814;SDS011;62145;55.648;37.602;2022-07-29T08:40:22;4.00;;;1.70;;
73814;SDS011;62145;55.648;37.602;2022-07-29T08:42:49;4.55;;;1.40;;
73814;SDS011;62145;55.648;37.602;2022-07-29T08:45:15;3.97;;;1.52;;
73814;SDS011;62145;55.648;37.602;2022-07-29T08:47:43;4.77;;;1.50;;
73814;SDS011;62145;55.648;37.602;2022-07-29T08:50:10;3.85;;;1.85;;
73814;SDS011;62145;55.648;37.602;2022-07-29T08:52:37;4.25;;;1.40;;
73814;SDS011;62145;55.648;37.602;2022-07-29T08:55:05;4.25;;;1.50;;
73814;SDS011;62145;55.648;37.602;2022-07-29T08:57:33;5.10;;;1.55;;
73814;SDS011;62145;55.648;37.602;2022-07-29T09:00:06;2.90;;;1.47;;
73814;SDS011;62145;55.648;37.602;2022-07-29T09:02:35;4.00;;;1.40;;
73814;SDS011;62145;55.648;37.602;2022-07-29T09:05:04;5.28;;;1.20;;
73814;SDS011;62145;55.648;37.602;2022-07-29T09:07:31;4.47;;;1.30;;
73814;SDS011;62145;55.648;37.602;2022-07-29T09:09:57;3.72;;;1.50;;
73814;SDS011;62145;55.648;37.602;2022-07-29T09:12:24;3.63;;;1.30;;
73814;SDS011;62145;55.648;37.602;2022-07-29T09:14:50;4.10;;;1.33;;
73814;SDS011;62145;55.648;37.602;2022-07-29T09:17:16;4.05;;;1.50;;
73814;SDS011;62145;55.648;37.602;2022-07-29T09:19:43;3.88;;;1.10;;
73814;SDS011;62145;55.648;37.602;2022-07-29T09:22:09;4.05;;;1.42;;
73814;SDS011;62145;55.648;37.602;2022-07-29T09:27:38;5.40;;;1.40;;
73814;SDS011;62145;55.648;37.602;2022-07-29T09:29:59;4.72;;;1.48;;
73814;SDS011;62145;55.648;37.602;2022-07-29T09:32:32;5.07;;;1.27;;
73814;SDS011;62145;55.648;37.602;2022-07-29T09:35:18;5.22;;;1.48;;
73814;SDS011;62145;55.648;37.602;2022-07-29T09:37:45;5.70;;;1.30;;
73814;SDS011;62145;55.648;37.602;2022-07-29T09:40:13;4.15;;;1.40;;
73814;SDS011;62145;55.648;37.602;2022-07-29T09:42:45;5.53;;;1.48;;
73814;SDS011;62145;55.648;37.602;2022-07-29T09:45:11;4.85;;;1.50;;
73814;SDS011;62145;55.648;37.602;2022-07-29T09:47:43;5.57;;;1.30;;
73814;SDS011;62145;55.648;37.602;2022-07-29T09:50:10;3.67;;;1.33;;
73814;SDS011;62145;55.648;37.602;2022-07-29T09:52:48;3.03;;;1.20;;
73814;SDS011;62145;55.648;37.602;2022-07-29T09:55:15;4.85;;;1.23;;
73814;SDS011;62145;55.648;37.602;2022-07-29T09:57:41;3.40;;;1.00;;
73814;SDS011;62145;55.648;37.602;2022-07-29T10:00:17;3.17;;;0.95;;
73814;SDS011;62145;55.648;37.602;2022-07-29T10:02:44;2.93;;;0.90;;
73814;SDS011;62145;55.648;37.602;2022-07-29T10:05:18;4.65;;;1.20;;
73814;SDS011;62145;55.648;37.602;2022-07-29T10:07:55;3.08;;;1.00;;
73814;SDS011;62145;55.648;37.602;2022-07-29T10:10:22;3.65;;;1.10;;
73814;SDS011;62145;55.648;37.602;2022-07-29T10:12:54;2.70;;;0.90;;
73814;SDS011;62145;55.648;37.602;2022-07-29T10:15:24;4.50;;;1.10;;
73814;SDS011;62145;55.648;37.602;2022-07-29T10:17:51;3.00;;;1.00;;
73814;SDS011;62145;55.648;37.602;2022-07-29T10:20:18;3.63;;;1.05;;
73814;SDS011;62145;55.648;37.602;2022-07-29T10:22:44;4.57;;;0.93;;
73814;SDS011;62145;55.648;37.602;2022-07-29T10:25:12;3.67;;;1.20;;
73814;SDS011;62145;55.648;37.602;2022-07-29T10:27:39;5.10;;;1.53;;
73814;SDS011;62145;55.648;37.602;2022-07-29T10:30:05;4.78;;;1.38;;
73814;SDS011;62145;55.648;37.602;2022-07-29T10:38:21;3.73;;;1.07;;
73814;SDS011;62145;55.648;37.602;2022-07-29T10:44:06;4.40;;;1.10;;
73814;SDS011;62145;55.648;37.602;2022-07-29T10:46:38;3.83;;;1.00;;
73814;SDS011;62145;55.648;37.602;2022-07-29T10:59:42;4.40;;;1.10;;
73814;SDS011;62145;55.648;37.602;2022-07-29T11:07:27;3.33;;;1.23;;
73814;SDS011;62145;55.648;37.602;2022-07-29T11:15:09;4.40;;;1.20;;
73814;SDS011;62145;55.648;37.602;2022-07-29T11:20:31;3.17;;;0.98;;
73814;SDS011;62145;55.648;37.602;2022-07-29T11:26:31;3.63;;;1.10;;
73814;SDS011;62145;55.648;37.602;2022-07-29T11:28:50;4.25;;;1.00;;
73814;SDS011;62145;55.648;37.602;2022-07-29T11:31:19;2.70;;;0.90;;
73814;SDS011;62145;55.648;37.602;2022-07-29T11:39:36;3.73;;;1.27;;
73814;SDS011;62145;55.648;37.602;2022-07-29T11:44:57;4.90;;;1.30;;
73814;SDS011;62145;55.648;37.602;2022-07-29T11:47:26;3.63;;;1.30;;
73814;SDS011;62145;55.648;37.602;2022-07-29T11:49:53;5.22;;;1.23;;
73814;SDS011;62145;55.648;37.602;2022-07-29T11:52:21;3.87;;;1.07;;
73814;SDS011;62145;55.648;37.602;2022-07-29T11:54:47;2.72;;;1.00;;
73814;SDS011;62145;55.648;37.602;2022-07-29T11:57:17;7.03;;;1.45;;
73814;SDS011;62145;55.648;37.602;2022-07-29T11:59:44;5.07;;;1.13;;
73814;SDS011;62145;55.648;37.602;2022-07-29T12:02:11;5.35;;;1.50;;
73814;SDS011;62145;55.648;37.602;2022-07-29T12:04:54;3.78;;;1.20;;
73814;SDS011;62145;55.648;37.602;2022-07-29T12:07:30;4.32;;;1.00;;
73814;SDS011;62145;55.648;37.602;2022-07-29T12:09:57;4.30;;;1.02;;
73814;SDS011;62145;55.648;37.602;2022-07-29T12:12:23;3.10;;;1.00;;
73814;SDS011;62145;55.648;37.602;2022-07-29T12:14:50;3.67;;;1.27;;
73814;SDS011;62145;55.648;37.602;2022-07-29T12:17:25;4.07;;;1.08;;
73814;SDS011;62145;55.648;37.602;2022-07-29T12:19:57;4.05;;;1.30;;
73814;SDS011;62145;55.648;37.602;2022-07-29T12:22:32;4.87;;;1.20;;
73814;SDS011;62145;55.648;37.602;2022-07-29T12:25:07;3.53;;;0.90;;
73814;SDS011;62145;55.648;37.602;2022-07-29T12:27:35;3.45;;;1.00;;
73814;SDS011;62145;55.648;37.602;2022-07-29T12:30:06;3.20;;;1.00;;
73814;SDS011;62145;55.648;37.602;2022-07-29T12:32:37;3.65;;;1.20;;
73814;SDS011;62145;55.648;37.602;2022-07-29T12:35:08;5.73;;;1.13;;
73814;SDS011;62145;55.648;37.602;2022-07-29T12:37:36;5.38;;;1.20;;
73814;SDS011;62145;55.648;37.602;2022-07-29T12:40:03;3.47;;;1.20;;
73814;SDS011;62145;55.648;37.602;2022-07-29T12:42:31;3.55;;;1.25;;
73814;SDS011;62145;55.648;37.602;2022-07-29T12:44:57;4.47;;;1.40;;
73814;SDS011;62145;55.648;37.602;2022-07-29T12:47:23;4.03;;;1.20;;
73814;SDS011;62145;55.648;37.602;2022-07-29T12:49:49;5.85;;;1.30;;
73814;SDS011;62145;55.648;37.602;2022-07-29T12:52:33;4.60;;;1.40;;
73814;SDS011;62145;55.648;37.602;2022-07-29T12:54:59;4.45;;;1.27;;
73814;SDS011;62145;55.648;37.602;2022-07-29T12:57:26;4.60;;;1.10;;
73814;SDS011;62145;55.648;37.602;2022-07-29T13:00:09;4.47;;;1.13;;
73814;SDS011;62145;55.648;37.602;2022-07-29T13:02:36;3.55;;;0.93;;
73814;SDS011;62145;55.648;37.602;2022-07-29T13:05:04;4.07;;;1.20;;
73814;SDS011;62145;55.648;37.602;2022-07-29T13:07:32;3.05;;;0.90;;
73814;SDS011;62145;55.648;37.602;2022-07-29T13:10:10;2.67;;;0.90;;
73814;SDS011;62145;55.648;37.602;2022-07-29T13:12:38;3.70;;;1.00;;
73814;SDS011;62145;55.648;37.602;2022-07-29T13:15:14;4.35;;;1.20;;
73814;SDS011;62145;55.648;37.602;2022-07-29T13:17:41;4.32;;;1.23;;
73814;SDS011;62145;55.648;37.602;2022-07-29T13:20:08;5.35;;;1.10;;
73814;SDS011;62145;55.648;37.602;2022-07-29T13:22:37;5.80;;;1.20;;
73814;SDS011;62145;55.648;37.602;2022-07-29T13:25:04;7.23;;;1.30;;
73814;SDS011;62145;55.648;37.602;2022-07-29T13:27:32;4.88;;;1.15;;
73814;SDS011;62145;55.648;37.602;2022-07-29T13:30:00;4.47;;;1.40;;
73814;SDS011;62145;55.648;37.602;2022-07-29T13:32:27;3.85;;;1.30;;
73814;SDS011;62145;55.648;37.602;2022-07-29T13:34:53;3.03;;;1.15;;
73814;SDS011;62145;55.648;37.602;2022-07-29T13:37:20;3.60;;;1.07;;
73814;SDS011;62145;55.648;37.602;2022-07-29T13:39:46;4.18;;;1.30;;
73814;SDS011;62145;55.648;37.602;2022-07-29T13:42:12;3.83;;;1.10;;
73814;SDS011;62145;55.648;37.602;2022-07-29T13:44:39;2.90;;;1.10;;
73814;SDS011;62145;55.648;37.602;2022-07-29T13:47:05;6.27;;;1.10;;
73814;SDS011;62145;55.648;37.602;2022-07-29T13:49:32;5.18;;;1.33;;
73814;SDS011;62145;55.648;37.602;2022-07-29T13:51:58;5.03;;;1.30;;
73814;SDS011;62145;55.648;37.602;2022-07-29T13:54:23;3.67;;;1.30;;
73814;SDS011;62145;55.648;37.602;2022-07-29T13:56:50;3.95;;;1.30;;
73814;SDS011;62145;55.648;37.602;2022-07-29T13:59:16;4.80;;;1.20;;
73814;SDS011;62145;55.648;37.602;2022-07-29T14:01:42;3.92;;;1.30;;
73814;SDS011;62145;55.648;37.602;2022-07-29T14:04:08;4.40;;;1.27;;
73814;SDS011;62145;55.648;37.602;2022-07-29T14:06:35;6.60;;;1.05;;
73814;SDS011;62145;55.648;37.602;2022-07-29T14:09:02;4.40;;;1.20;;
73814;SDS011;62145;55.648;37.602;2022-07-29T14:11:31;4.25;;;1.17;;
73814;SDS011;62145;55.648;37.602;2022-07-29T14:13:57;4.28;;;1.10;;
73814;SDS011;62145;55.648;37.602;2022-07-29T14:16:23;3.27;;;1.20;;
73814;SDS011;62145;55.648;37.602;2022-07-29T14:18:49;4.25;;;1.15;;
73814;SDS011;62145;55.648;37.602;2022-07-29T14:21:15;3.63;;;1.10;;
73814;SDS011;62145;55.648;37.602;2022-07-29T14:23:41;4.45;;;1.38;;
73814;SDS011;62145;55.648;37.602;2022-07-29T14:26:07;4.25;;;1.20;;
73814;SDS011;62145;55.648;37.602;2022-07-29T14:28:33;3.33;;;1.40;;
73814;SDS011;62145;55.648;37.602;2022-07-29T14:30:59;4.93;;;1.27;;
73814;SDS011;62145;55.648;37.602;2022-07-29T14:33:24;4.07;;;1.20;;
73814;SDS011;62145;55.648;37.602;2022-07-29T14:35:50;4.03;;;1.20;;
73814;SDS011;62145;55.648;37.602;2022-07-29T14:38:16;3.78;;;1.40;;
73814;SDS011;62145;55.648;37.602;2022-07-29T14:40:42;4.95;;;1.40;;
73814;SDS011;62145;55.648;37.602;2022-07-29T14:43:08;5.10;;;1.40;;
73814;SDS011;62145;55.648;37.602;2022-07-29T14:45:33;3.67;;;1.40;;
73814;SDS011;62145;55.648;37.602;2022-07-29T14:47:59;4.53;;;1.33;;
73814;SDS011;62145;55.648;37.602;2022-07-29T14:50:26;4.40;;;1.30;;
73814;SDS011;62145;55.648;37.602;2022-07-29T14:52:52;7.05;;;1.80;;
73814;SDS011;62145;55.648;37.602;2022-07-29T14:55:18;4.68;;;1.35;;
73814;SDS011;62145;55.648;37.602;2022-07-29T14:57:44;4.65;;;2.22;;
73814;SDS011;62145;55.648;37.602;2022-07-29T15:00:10;5.57;;;1.40;;
73814;SDS011;62145;55.648;37.602;2022-07-29T15:02:36;4.25;;;1.60;;
73814;SDS011;62145;55.648;37.602;2022-07-29T15:05:03;3.80;;;1.42;;
73814;SDS011;62145;55.648;37.602;2022-07-29T15:07:29;4.82;;;1.00;;
73814;SDS011;62145;55.648;37.602;2022-07-29T15:09:54;3.80;;;1.30;;
73814;SDS011;62145;55.648;37.602;2022-07-29T15:12:20;4.75;;;1.23;;
73814;SDS011;62145;55.648;37.602;2022-07-29T15:14:46;3.80;;;1.10;;
73814;SDS011;62145;55.648;37.602;2022-07-29T15:17:12;4.10;;;1.13;;
73814;SDS011;62145;55.648;37.602;2022-07-29T15:19:38;3.95;;;1.20;;
73814;SDS011;62145;55.648;37.602;2022-07-29T15:22:04;3.90;;;1.40;;
73814;SDS011;62145;55.648;37.602;2022-07-29T15:24:30;4.38;;;1.40;;
73814;SDS011;62145;55.648;37.602;2022-07-29T15:26:56;4.03;;;1.52;;
73814;SDS011;62145;55.648;37.602;2022-07-29T15:29:22;7.05;;;1.65;;
73814;SDS011;62145;55.648;37.602;2022-07-29T15:31:48;5.43;;;1.70;;
73814;SDS011;62145;55.648;37.602;2022-07-29T15:34:14;3.33;;;1.40;;